Crescent City, California
Current Conditions -  °F | °C
As of 9:56 PM on Thursday 27 Nov 2014 (Local Time) from KCEC Reporting Station
Overcast Overcast  
Wind Chill: 59°   Ceiling: 7000
Heat Index: 59°   Visibility: 10mi
Dew Point: 53°   Wind: 18mph
Humidity: 81%   Direction: 160°SSE
Pressure: 29.97"   Gusts: NA
Location:  41.74°N, 124.16°W
Report Text: KCEC 280556Z AUTO 16016KT 10SM BKN070 OVC090 15/12 A2997 RMK AO2 SLP147 60000 T01500117 10156 20150 58009
Loading
Personal Weather Stations






























Interactive Weather Map New forecast layout! Learn more

10-Day Weather Forecast

Advertisements
Track Severe Weather on mobile